TimeEST,TemperatureF,Dew PointF,Humidity,Sea Level PressureIn,VisibilityMPH,Wind Direction,Wind SpeedMPH,Gust SpeedMPH,PrecipitationIn,Events,Conditions,WindDirDegrees,DateUTC
12:15 AM,51.6,42.8,72,30.16,10.0,SW,3.5,-,N/A,,Clear,230,2013-01-01 05:15:00
12:35 AM,50.9,43.2,75,30.15,10.0,SSW,4.6,-,N/A,,Scattered Clouds,210,2013-01-01 05:35:00
1:15 AM,50.2,43.7,78,30.13,10.0,SSW,3.5,-,N/A,,Clear,200,2013-01-01 06:15:00
1:35 AM,50.0,43.7,79,30.13,10.0,SSW,4.6,-,N/A,,Clear,200,2013-01-01 06:35:00
1:55 AM,50.2,44.2,80,30.12,10.0,SSW,3.5,-,N/A,,Scattered Clouds,210,2013-01-01 06:55:00
2:15 AM,50.5,44.1,78,30.11,10.0,SSW,3.5,-,N/A,,Clear,200,2013-01-01 07:15:00
2:35 AM,50.9,44.6,79,30.10,10.0,SSW,4.6,-,N/A,,Scattered Clouds,210,2013-01-01 07:35:00
3:15 AM,51.8,44.6,76,30.10,10.0,SW,4.6,-,N/A,,Scattered Clouds,220,2013-01-01 08:15:00
3:35 AM,51.8,44.6,76,30.11,10.0,SSW,4.6,-,N/A,,Scattered Clouds,210,2013-01-01 08:35:00
4:15 AM,52.2,44.6,75,30.10,10.0,SW,3.5,-,N/A,,Scattered Clouds,220,2013-01-01 09:15:00
4:35 AM,51.6,45.0,78,30.08,10.0,SSW,4.6,-,N/A,,Scattered Clouds,200,2013-01-01 09:35:00
5:15 AM,52.3,44.8,75,30.09,10.0,Calm,Calm,-,N/A,,Scattered Clouds,0,2013-01-01 10:15:00
5:35 AM,52.3,44.8,75,30.09,10.0,SSW,3.5,-,N/A,,Scattered Clouds,210,2013-01-01 10:35:00
5:55 AM,51.8,45.0,77,30.08,10.0,SW,3.5,-,N/A,,Mostly Cloudy,220,2013-01-01 10:55:00
6:15 AM,52.3,45.0,76,30.09,10.0,Calm,Calm,-,N/A,,Mostly Cloudy,0,2013-01-01 11:15:00
6:35 AM,52.7,45.0,75,30.09,10.0,Calm,Calm,-,N/A,,Scattered Clouds,0,2013-01-01 11:35:00
6:55 AM,52.2,45.1,77,30.11,10.0,Calm,Calm,-,N/A,,Scattered Clouds,0,2013-01-01 11:55:00
7:15 AM,52.0,45.1,77,30.11,10.0,Calm,Calm,-,N/A,,Scattered Clouds,0,2013-01-01 12:15:00
7:35 AM,51.8,45.3,79,30.12,10.0,Calm,Calm,-,N/A,,Scattered Clouds,0,2013-01-01 12:35:00
7:55 AM,51.8,45.3,79,30.12,10.0,Calm,Calm,-,N/A,,Scattered Clouds,0,2013-01-01 12:55:00
8:15 AM,52.2,45.9,79,30.12,10.0,Calm,Calm,-,N/A,,Clear,0,2013-01-01 13:15:00
8:35 AM,53.1,45.7,76,30.13,10.0,Calm,Calm,-,N/A,,Mostly Cloudy,0,2013-01-01 13:35:00
8:55 AM,53.6,46.0,76,30.13,10.0,Calm,Calm,-,N/A,,Mostly Cloudy,0,2013-01-01 13:55:00
9:15 AM,53.8,46.2,76,30.13,10.0,WSW,3.5,-,N/A,,Scattered Clouds,240,2013-01-01 14:15:00
9:35 AM,54.5,46.4,74,30.14,10.0,Calm,Calm,-,N/A,,Scattered Clouds,0,2013-01-01 14:35:00
9:55 AM,54.5,46.6,75,30.14,10.0,Calm,Calm,-,N/A,,Scattered Clouds,0,2013-01-01 14:55:00
10:15 AM,54.7,46.8,75,30.14,10.0,Calm,Calm,-,N/A,,Scattered Clouds,0,2013-01-01 15:15:00
10:35 AM,54.7,46.8,75,30.14,10.0,Calm,Calm,-,N/A,,Scattered Clouds,0,2013-01-01 15:35:00
10:55 AM,54.7,47.3,76,30.13,10.0,Calm,Calm,-,N/A,,Mostly Cloudy,0,2013-01-01 15:55:00
11:15 AM,54.9,47.3,76,30.12,10.0,Calm,Calm,-,N/A,,Overcast,0,2013-01-01 16:15:00
11:35 AM,54.7,47.5,77,30.11,10.0,Calm,Calm,-,N/A,,Mostly Cloudy,0,2013-01-01 16:35:00
11:55 AM,54.7,47.5,77,30.10,10.0,SW,3.5,-,N/A,Rain,Light Rain,220,2013-01-01 16:55:00
12:15 PM,54.3,47.7,78,30.09,10.0,Calm,Calm,-,N/A,,Overcast,0,2013-01-01 17:15:00
12:35 PM,54.0,48.0,80,30.08,10.0,Calm,Calm,-,N/A,,Overcast,0,2013-01-01 17:35:00
12:55 PM,54.0,48.2,81,30.07,10.0,Calm,Calm,-,N/A,,Light Drizzle,0,2013-01-01 17:55:00
1:15 PM,54.0,49.1,84,30.06,10.0,Calm,Calm,-,N/A,,Drizzle,0,2013-01-01 18:15:00
1:35 PM,53.4,50.0,88,30.05,10.0,SSW,5.8,-,N/A,,Drizzle,200,2013-01-01 18:35:00
2:15 PM,53.2,51.1,92,30.04,7.0,WSW,3.5,-,N/A,,Drizzle,240,2013-01-01 19:15:00
2:35 PM,52.9,50.9,93,30.04,4.0,Calm,Calm,-,0.01,Rain,Heavy Rain,0,2013-01-01 19:35:00
2:55 PM,52.3,50.9,95,30.04,5.0,Calm,Calm,-,0.01,,Light Drizzle,0,2013-01-01 19:55:00
3:15 PM,52.5,51.1,95,30.04,7.0,Calm,Calm,-,N/A,,Scattered Clouds,0,2013-01-01 20:15:00
3:35 PM,52.5,51.1,95,30.03,7.0,Calm,Calm,-,N/A,,Scattered Clouds,0,2013-01-01 20:35:00
3:55 PM,52.9,51.6,95,30.02,7.0,Calm,Calm,-,N/A,,Mostly Cloudy,0,2013-01-01 20:55:00
4:15 PM,52.7,51.6,96,30.02,7.0,South,4.6,-,N/A,,Mostly Cloudy,190,2013-01-01 21:15:00
4:35 PM,52.7,51.8,97,30.01,7.0,South,4.6,-,N/A,,Mostly Cloudy,190,2013-01-01 21:35:00
4:55 PM,52.7,51.4,95,30.01,7.0,SSW,4.6,-,N/A,,Overcast,200,2013-01-01 21:55:00
5:15 PM,52.3,51.3,96,30.00,7.0,South,3.5,-,N/A,,Overcast,180,2013-01-01 22:15:00
5:35 PM,52.2,51.1,96,30.00,7.0,SSW,3.5,-,N/A,,Overcast,210,2013-01-01 22:35:00
5:55 PM,52.3,51.1,95,30.00,7.0,Calm,Calm,-,N/A,,Overcast,0,2013-01-01 22:55:00
6:15 PM,52.0,50.9,96,30.01,7.0,Calm,Calm,-,N/A,,Overcast,0,2013-01-01 23:15:00
6:35 PM,51.8,50.7,96,30.01,5.0,Calm,Calm,-,N/A,,Overcast,0,2013-01-01 23:35:00
6:55 PM,51.4,50.9,98,30.01,5.0,Calm,Calm,-,N/A,,Overcast,0,2013-01-01 23:55:00
7:15 PM,51.4,50.9,98,30.02,5.0,Calm,Calm,-,N/A,,Mostly Cloudy,0,2013-01-02 00:15:00
7:35 PM,51.4,50.7,97,30.01,5.0,Calm,Calm,-,N/A,,Scattered Clouds,0,2013-01-02 00:35:00
7:55 PM,51.3,50.9,99,30.01,5.0,Calm,Calm,-,N/A,,Mostly Cloudy,0,2013-01-02 00:55:00
8:15 PM,51.3,50.7,98,30.01,7.0,Calm,Calm,-,N/A,,Mostly Cloudy,0,2013-01-02 01:15:00
8:35 PM,51.1,50.4,97,30.00,5.0,Calm,Calm,-,N/A,,Mostly Cloudy,0,2013-01-02 01:35:00
8:55 PM,50.9,50.4,98,30.00,5.0,Calm,Calm,-,N/A,,Overcast,0,2013-01-02 01:55:00
9:15 PM,50.9,50.2,97,30.00,4.0,Calm,Calm,-,N/A,,Overcast,0,2013-01-02 02:15:00
9:35 PM,50.5,50.0,98,29.99,4.0,Calm,Calm,-,N/A,,Mostly Cloudy,0,2013-01-02 02:35:00
9:55 PM,50.5,50.2,99,29.98,5.0,Calm,Calm,-,N/A,,Overcast,0,2013-01-02 02:55:00
10:15 PM,50.5,50.2,99,29.98,4.0,Calm,Calm,-,N/A,,Overcast,0,2013-01-02 03:15:00
10:35 PM,50.2,49.8,99,29.97,4.0,Calm,Calm,-,N/A,,Mostly Cloudy,0,2013-01-02 03:35:00
10:55 PM,50.2,50.0,99,29.97,4.0,Calm,Calm,-,N/A,,Overcast,0,2013-01-02 03:55:00
11:15 PM,50.4,50.0,99,29.96,5.0,Calm,Calm,-,N/A,,Overcast,0,2013-01-02 04:15:00
11:35 PM,50.0,49.6,99,29.96,5.0,Calm,Calm,-,N/A,,Overcast,0,2013-01-02 04:35:00
11:55 PM,50.0,49.5,98,29.95,3.0,Calm,Calm,-,N/A,,Overcast,0,2013-01-02 04:55:00